SBGO

Details ICAO SBGO (GYN)
Name Santo Genoveva
Region Brazil
Timezone America/Sao_Paulo (UTC-2.0)
Plans Departing 114
Arriving 94
Stats Elevation 2,450 ft / 747 m (AMSL)
Location -16.632032° -49.220686°
Runways 1
Magnetic Variation 20.989° W
Sunrise 2017-12-15 08:40:08 UTC / 2017-12-15 06:40:08 Local
Sunset 2017-12-15 21:46:51 UTC / 2017-12-15 19:46:51 Local
Advertisement - Login to hide

Runways

ID Width Length Bearing (true) Bearing (mag) Surface Threshold Offset Overrun Length
14 148 ft / 45 m 8,208 ft / 2,502 m 120.42° 141.41° Asphalt 0 ft / 0 m 0 ft / 0 m
32 148 ft / 45 m 8,208 ft / 2,502 m 300.41° 321.40° Asphalt 980 ft / 299 m 0 ft / 0 m

Map

Weather


0- 5 10 15 20 25 30 35+ Temperature / ° C

Clouds and Precipitation
Forecast for 2017-12-15 12:00 UTC. Updated an hour ago

Ground ~20,000 ft ~40,000 ft Winds

METAR

SBGO 151232Z 34008KT 9999 BKN015 24/19 Q1017

TAF

TAF SBGO 151000Z 1512/1612 03007KT 9999 SCT015 TX28/1517Z TN20/1609Z PROB30 1512/1514 BKN010 BECMG 1513/1514 36008KT BKN030 FEW045TCU BECMG 1518/1519 05007KT 8000 RA SCT018 FEW35TCU PROB40 1519/1522 8000 TSRA SCT015 FEW040CB BECMG 1601/1603 34004KT SCT015 RMK PEJ

Frequencies

Recorded 127.67 MHz ATIS
Tower 118.70 MHz GOIANIA TWR
Ground 121.70 MHz GND
Warning: Do not use this data for real-world aviation or navigation. No guarantee of current accuracy is given.